OAL946 LCPH-LGAV
Flight info
| Callsign | OAL946 |
|---|---|
| Flight time | 1h 21m |
| Altitude | 32000 |
| Route | GENOS M42 ALKIS UL609 RDS UL995 VARIX |
| Aircraft | B38M/M-SDE1FGHILORVWXY/HB1 |
Departure
| Time | 2026-05-08 07:18 |
|---|---|
| Airport | Paphos International Airport (LCPH) |
Arrival
| Time | 2026-05-08 08:40 |
|---|---|
| Airport | Athens Eleftherios Venizelos International Airport (LGAV) |
| Time | Latitude | Longitude | Altitude | Speed | Heading |
|---|---|---|---|---|---|
| 2026-05-08 07:03 | 34.71368 | 32.48814 | 48 ft | 0 kts | 153° |
| 2026-05-08 07:09 | 34.71390 | 32.48801 | 46 ft | 4 kts | 155° |
| 2026-05-08 07:10 | 34.71414 | 32.48787 | 45 ft | 4 kts | 161° |
| 2026-05-08 07:10 | 34.71439 | 32.48786 | 43 ft | 4 kts | 202° |
| 2026-05-08 07:10 | 34.71456 | 32.48804 | 48 ft | 2 kts | 245° |
| 2026-05-08 07:10 | 34.71457 | 32.48805 | 48 ft | 1 kts | 245° |
| 2026-05-08 07:13 | 34.71456 | 32.48805 | 48 ft | 0 kts | 245° |
| 2026-05-08 07:13 | 34.71444 | 32.48772 | 47 ft | 11 kts | 245° |
| 2026-05-08 07:13 | 34.71389 | 32.48633 | 47 ft | 24 kts | 243° |
| 2026-05-08 07:14 | 34.71365 | 32.48404 | 48 ft | 31 kts | 289° |
| 2026-05-08 07:14 | 34.71411 | 32.48291 | 47 ft | 7 kts | 325° |
| 2026-05-08 07:14 | 34.71497 | 32.48283 | 48 ft | 20 kts | 20° |
| 2026-05-08 07:14 | 34.71670 | 32.48357 | 48 ft | 33 kts | 19° |
| 2026-05-08 07:15 | 34.71886 | 32.48460 | 48 ft | 25 kts | 21° |
| 2026-05-08 07:15 | 34.71987 | 32.48563 | 48 ft | 17 kts | 100° |
| 2026-05-08 07:15 | 34.71934 | 32.48691 | 48 ft | 20 kts | 114° |
| 2026-05-08 07:15 | 34.71871 | 32.48891 | 45 ft | 30 kts | 111° |
| 2026-05-08 07:16 | 34.71792 | 32.49149 | 48 ft | 34 kts | 109° |
| 2026-05-08 07:16 | 34.71712 | 32.49420 | 45 ft | 34 kts | 113° |
| 2026-05-08 07:16 | 34.71624 | 32.49694 | 47 ft | 35 kts | 109° |
| 2026-05-08 07:16 | 34.71568 | 32.49880 | 47 ft | 22 kts | 110° |
| 2026-05-08 07:17 | 34.71484 | 32.49954 | 47 ft | 18 kts | 216° |
| 2026-05-08 07:17 | 34.71417 | 32.49824 | 46 ft | 19 kts | 276° |
| 2026-05-08 07:17 | 34.71483 | 32.49584 | 46 ft | 47 kts | 290° |
| 2026-05-08 07:17 | 34.71638 | 32.49070 | 50 ft | 83 kts | 290° |
| 2026-05-08 07:18 | 34.71925 | 32.48107 | 50 ft | 157 kts | 289° |
| 2026-05-08 07:18 | 34.72320 | 32.46738 | 546 ft | 184 kts | 290° |
| 2026-05-08 07:18 | 34.72827 | 32.45276 | 1462 ft | 187 kts | 294° |
| 2026-05-08 07:18 | 34.73300 | 32.43746 | 2183 ft | 204 kts | 291° |
| 2026-05-08 07:19 | 34.73651 | 32.41967 | 2638 ft | 235 kts | 272° |
| 2026-05-08 07:19 | 34.73400 | 32.39892 | 3317 ft | 254 kts | 252° |
| 2026-05-08 07:19 | 34.72859 | 32.37781 | 4143 ft | 269 kts | 261° |
| 2026-05-08 07:19 | 34.72671 | 32.35483 | 5156 ft | 273 kts | 265° |
| 2026-05-08 07:20 | 34.72467 | 32.33198 | 6187 ft | 277 kts | 265° |
| 2026-05-08 07:20 | 34.72242 | 32.30856 | 7244 ft | 278 kts | 265° |
| 2026-05-08 07:20 | 34.72006 | 32.28501 | 8216 ft | 282 kts | 266° |
| 2026-05-08 07:20 | 34.71760 | 32.26120 | 9196 ft | 285 kts | 266° |
| 2026-05-08 07:21 | 34.71506 | 32.23701 | 10156 ft | 289 kts | 266° |
| 2026-05-08 07:21 | 34.71247 | 32.21248 | 10720 ft | 305 kts | 266° |
| 2026-05-08 07:21 | 34.70965 | 32.18589 | 11166 ft | 324 kts | 266° |
| 2026-05-08 07:21 | 34.70667 | 32.15815 | 11744 ft | 336 kts | 265° |
| 2026-05-08 07:22 | 34.70364 | 32.12992 | 12592 ft | 338 kts | 265° |
| 2026-05-08 07:22 | 34.70058 | 32.10140 | 13380 ft | 342 kts | 265° |
| 2026-05-08 07:22 | 34.69752 | 32.07292 | 14152 ft | 345 kts | 265° |
| 2026-05-08 07:22 | 34.69439 | 32.04381 | 14868 ft | 348 kts | 265° |
| 2026-05-08 07:23 | 34.69121 | 32.01445 | 15589 ft | 351 kts | 265° |
| 2026-05-08 07:23 | 34.68800 | 31.98481 | 16283 ft | 353 kts | 265° |
| 2026-05-08 07:23 | 34.68480 | 31.95525 | 16967 ft | 356 kts | 265° |
| 2026-05-08 07:23 | 34.68153 | 31.92519 | 17637 ft | 359 kts | 265° |
| 2026-05-08 07:24 | 34.68078 | 31.89535 | 18276 ft | 357 kts | 281° |
| 2026-05-08 07:24 | 34.68520 | 31.86553 | 18832 ft | 360 kts | 282° |
| 2026-05-08 07:24 | 34.68967 | 31.83548 | 19396 ft | 362 kts | 283° |
| 2026-05-08 07:24 | 34.69429 | 31.80531 | 19961 ft | 365 kts | 283° |
| 2026-05-08 07:25 | 34.69898 | 31.77530 | 20526 ft | 366 kts | 283° |
| 2026-05-08 07:25 | 34.70380 | 31.74466 | 21101 ft | 368 kts | 283° |
| 2026-05-08 07:25 | 34.71349 | 31.68324 | 22166 ft | 373 kts | 283° |
| 2026-05-08 07:26 | 34.71840 | 31.65204 | 22692 ft | 376 kts | 283° |
| 2026-05-08 07:26 | 34.72335 | 31.62062 | 23221 ft | 378 kts | 283° |
| 2026-05-08 07:26 | 34.72831 | 31.58903 | 23728 ft | 381 kts | 283° |
| 2026-05-08 07:26 | 34.73325 | 31.55760 | 24144 ft | 383 kts | 284° |
| 2026-05-08 07:27 | 34.73825 | 31.52565 | 24593 ft | 385 kts | 284° |
| 2026-05-08 07:27 | 34.74325 | 31.49363 | 25049 ft | 385 kts | 284° |
| 2026-05-08 07:27 | 34.74828 | 31.46142 | 25488 ft | 386 kts | 284° |
| 2026-05-08 07:27 | 34.75323 | 31.42958 | 25902 ft | 388 kts | 285° |
| 2026-05-08 07:28 | 34.75828 | 31.39714 | 26317 ft | 390 kts | 285° |
| 2026-05-08 07:28 | 34.76332 | 31.36462 | 26720 ft | 391 kts | 285° |
| 2026-05-08 07:28 | 34.76832 | 31.33234 | 27115 ft | 393 kts | 285° |
| 2026-05-08 07:28 | 34.77340 | 31.29945 | 27508 ft | 395 kts | 285° |
| 2026-05-08 07:29 | 34.77849 | 31.26647 | 27898 ft | 397 kts | 285° |
| 2026-05-08 07:29 | 34.78359 | 31.23333 | 28284 ft | 398 kts | 285° |
| 2026-05-08 07:29 | 34.78865 | 31.20041 | 28693 ft | 399 kts | 286° |
| 2026-05-08 07:29 | 34.79377 | 31.16706 | 29069 ft | 401 kts | 286° |
| 2026-05-08 07:30 | 34.79883 | 31.13400 | 29426 ft | 402 kts | 286° |
| 2026-05-08 07:30 | 34.80396 | 31.10041 | 29788 ft | 404 kts | 286° |
| 2026-05-08 07:30 | 34.80911 | 31.06664 | 30141 ft | 406 kts | 286° |
| 2026-05-08 07:30 | 34.81426 | 31.03277 | 30462 ft | 407 kts | 286° |
| 2026-05-08 07:31 | 34.81940 | 30.99894 | 30880 ft | 405 kts | 286° |
| 2026-05-08 07:31 | 34.82450 | 30.96536 | 31338 ft | 402 kts | 287° |
| 2026-05-08 07:31 | 34.82950 | 30.93226 | 31788 ft | 399 kts | 286° |
| 2026-05-08 07:31 | 34.83452 | 30.89906 | 32119 ft | 398 kts | 286° |
| 2026-05-08 07:32 | 34.83951 | 30.86592 | 32157 ft | 395 kts | 286° |
| 2026-05-08 07:32 | 34.84934 | 30.80056 | 32165 ft | 393 kts | 286° |
| 2026-05-08 07:33 | 34.85911 | 30.73530 | 32163 ft | 393 kts | 286° |
| 2026-05-08 07:33 | 34.86891 | 30.66963 | 32159 ft | 393 kts | 286° |
| 2026-05-08 07:34 | 34.87860 | 30.60445 | 32160 ft | 392 kts | 286° |
| 2026-05-08 07:34 | 34.88832 | 30.53877 | 32167 ft | 392 kts | 286° |
| 2026-05-08 07:35 | 34.89793 | 30.47367 | 32158 ft | 393 kts | 286° |
| 2026-05-08 07:35 | 34.90597 | 30.41896 | 32158 ft | 393 kts | 286° |
| 2026-05-08 07:36 | 34.91552 | 30.35373 | 32154 ft | 392 kts | 286° |
| 2026-05-08 07:36 | 34.92507 | 30.28823 | 32160 ft | 391 kts | 286° |
| 2026-05-08 07:37 | 34.93454 | 30.22310 | 32158 ft | 391 kts | 286° |
| 2026-05-08 07:37 | 34.94401 | 30.15766 | 32162 ft | 391 kts | 286° |
| 2026-05-08 07:38 | 34.95346 | 30.09224 | 32159 ft | 391 kts | 285° |
| 2026-05-08 07:38 | 34.96278 | 30.02743 | 32161 ft | 390 kts | 285° |
| 2026-05-08 07:39 | 34.96766 | 29.96114 | 32173 ft | 395 kts | 279° |
| 2026-05-08 07:39 | 34.97038 | 29.89448 | 32161 ft | 394 kts | 279° |
| 2026-05-08 07:40 | 34.97346 | 29.82740 | 32159 ft | 395 kts | 279° |
| 2026-05-08 07:40 | 34.97655 | 29.76095 | 32162 ft | 394 kts | 279° |
| 2026-05-08 07:41 | 34.97926 | 29.69386 | 32167 ft | 394 kts | 279° |
| 2026-05-08 07:41 | 34.98189 | 29.62720 | 32168 ft | 394 kts | 279° |
| 2026-05-08 07:42 | 34.98450 | 29.56060 | 32168 ft | 394 kts | 279° |
| 2026-05-08 07:42 | 34.98708 | 29.49360 | 32166 ft | 394 kts | 278° |
| 2026-05-08 07:43 | 34.98960 | 29.42713 | 32170 ft | 394 kts | 278° |
| 2026-05-08 07:43 | 34.99214 | 29.36014 | 32170 ft | 394 kts | 279° |
| 2026-05-08 07:43 | 34.99741 | 29.32792 | 32157 ft | 383 kts | 295° |
| 2026-05-08 07:44 | 35.00771 | 29.29825 | 32162 ft | 384 kts | 295° |
| 2026-05-08 07:44 | 35.02869 | 29.23830 | 32162 ft | 384 kts | 296° |
| 2026-05-08 07:45 | 35.05018 | 29.17882 | 32170 ft | 385 kts | 296° |
| 2026-05-08 07:45 | 35.07205 | 29.11894 | 32170 ft | 385 kts | 296° |
| 2026-05-08 07:46 | 35.09376 | 29.05944 | 32167 ft | 385 kts | 296° |
| 2026-05-08 07:46 | 35.11542 | 28.99997 | 32167 ft | 384 kts | 296° |
| 2026-05-08 07:47 | 35.13716 | 28.94017 | 32163 ft | 384 kts | 296° |
| 2026-05-08 07:47 | 35.15875 | 28.88066 | 32172 ft | 384 kts | 296° |
| 2026-05-08 07:48 | 35.18048 | 28.82067 | 32174 ft | 384 kts | 296° |
| 2026-05-08 07:48 | 35.20195 | 28.76126 | 32167 ft | 384 kts | 296° |
| 2026-05-08 07:49 | 35.22356 | 28.70137 | 32172 ft | 384 kts | 296° |
| 2026-05-08 07:49 | 35.24513 | 28.64148 | 32172 ft | 384 kts | 296° |
| 2026-05-08 07:50 | 35.26669 | 28.58150 | 32168 ft | 383 kts | 296° |
| 2026-05-08 07:50 | 35.28833 | 28.52118 | 32170 ft | 394 kts | 295° |
| 2026-05-08 07:51 | 35.31062 | 28.45892 | 32171 ft | 400 kts | 295° |
| 2026-05-08 07:51 | 35.33289 | 28.39661 | 32167 ft | 400 kts | 295° |
| 2026-05-08 07:52 | 35.35511 | 28.33430 | 32164 ft | 401 kts | 295° |
| 2026-05-08 07:52 | 35.37733 | 28.27186 | 32166 ft | 401 kts | 295° |
| 2026-05-08 07:53 | 35.39963 | 28.20910 | 32168 ft | 401 kts | 295° |
| 2026-05-08 07:53 | 35.42188 | 28.14632 | 32163 ft | 401 kts | 295° |
| 2026-05-08 07:54 | 35.44397 | 28.08388 | 32164 ft | 399 kts | 295° |
| 2026-05-08 07:54 | 35.46609 | 28.02124 | 32168 ft | 399 kts | 295° |
| 2026-05-08 07:55 | 35.48816 | 27.95861 | 32168 ft | 399 kts | 294° |
| 2026-05-08 07:55 | 35.51428 | 27.89924 | 32165 ft | 398 kts | 309° |
| 2026-05-08 07:56 | 35.54986 | 27.84681 | 32166 ft | 399 kts | 308° |
| 2026-05-08 07:56 | 35.58508 | 27.79432 | 32167 ft | 399 kts | 308° |
| 2026-05-08 07:57 | 35.62060 | 27.74135 | 32168 ft | 399 kts | 308° |
| 2026-05-08 07:57 | 35.65582 | 27.68873 | 32167 ft | 399 kts | 308° |
| 2026-05-08 07:58 | 35.69091 | 27.63623 | 32168 ft | 399 kts | 308° |
| 2026-05-08 07:58 | 35.72634 | 27.58314 | 32168 ft | 399 kts | 308° |
| 2026-05-08 07:59 | 35.76147 | 27.53042 | 32168 ft | 399 kts | 308° |
| 2026-05-08 07:59 | 35.79675 | 27.47740 | 32168 ft | 399 kts | 308° |
| 2026-05-08 08:00 | 35.83182 | 27.42461 | 32184 ft | 399 kts | 308° |
| 2026-05-08 08:00 | 35.86690 | 27.37172 | 32168 ft | 398 kts | 308° |
| 2026-05-08 08:01 | 35.90185 | 27.31895 | 32168 ft | 398 kts | 308° |
| 2026-05-08 08:01 | 35.93688 | 27.26597 | 32165 ft | 398 kts | 307° |
| 2026-05-08 08:02 | 35.97170 | 27.21323 | 32165 ft | 398 kts | 307° |
| 2026-05-08 08:02 | 36.00676 | 27.16004 | 32161 ft | 398 kts | 307° |
| 2026-05-08 08:03 | 36.04152 | 27.10722 | 32162 ft | 398 kts | 307° |
| 2026-05-08 08:03 | 36.07659 | 27.05386 | 32162 ft | 398 kts | 307° |
| 2026-05-08 08:04 | 36.11128 | 27.00099 | 32158 ft | 398 kts | 307° |
| 2026-05-08 08:04 | 36.14606 | 26.94790 | 32165 ft | 398 kts | 307° |
| 2026-05-08 08:05 | 36.18099 | 26.89448 | 32184 ft | 398 kts | 307° |
| 2026-05-08 08:05 | 36.21565 | 26.84141 | 32165 ft | 399 kts | 306° |
| 2026-05-08 08:06 | 36.25052 | 26.78794 | 32164 ft | 400 kts | 306° |
| 2026-05-08 08:06 | 36.28554 | 26.73414 | 32167 ft | 400 kts | 306° |
| 2026-05-08 08:07 | 36.32051 | 26.68034 | 32168 ft | 400 kts | 306° |
| 2026-05-08 08:07 | 36.35525 | 26.62680 | 32168 ft | 400 kts | 306° |
| 2026-05-08 08:08 | 36.39013 | 26.57297 | 32167 ft | 400 kts | 306° |
| 2026-05-08 08:08 | 36.42493 | 26.51917 | 32169 ft | 402 kts | 306° |
| 2026-05-08 08:09 | 36.46000 | 26.46487 | 32165 ft | 402 kts | 306° |
| 2026-05-08 08:09 | 36.49478 | 26.41093 | 32167 ft | 402 kts | 306° |
| 2026-05-08 08:10 | 36.52976 | 26.35659 | 32183 ft | 402 kts | 306° |
| 2026-05-08 08:10 | 36.56479 | 26.30210 | 32178 ft | 402 kts | 306° |
| 2026-05-08 08:11 | 36.59954 | 26.24794 | 32165 ft | 402 kts | 305° |
| 2026-05-08 08:11 | 36.63444 | 26.19347 | 32167 ft | 402 kts | 305° |
| 2026-05-08 08:12 | 36.66926 | 26.13904 | 32167 ft | 402 kts | 305° |
| 2026-05-08 08:12 | 36.70395 | 26.08471 | 32168 ft | 402 kts | 305° |
| 2026-05-08 08:13 | 36.73881 | 26.03003 | 32171 ft | 402 kts | 305° |
| 2026-05-08 08:13 | 36.77365 | 25.97530 | 32171 ft | 402 kts | 305° |
| 2026-05-08 08:14 | 36.80828 | 25.92080 | 32172 ft | 402 kts | 305° |
| 2026-05-08 08:14 | 36.84285 | 25.86633 | 32170 ft | 402 kts | 304° |
| 2026-05-08 08:15 | 36.87761 | 25.81144 | 32185 ft | 402 kts | 304° |
| 2026-05-08 08:15 | 36.91215 | 25.75683 | 32171 ft | 402 kts | 304° |
| 2026-05-08 08:16 | 36.94698 | 25.70167 | 32166 ft | 402 kts | 304° |
| 2026-05-08 08:16 | 36.98147 | 25.64695 | 32163 ft | 402 kts | 304° |
| 2026-05-08 08:17 | 37.01609 | 25.59194 | 32162 ft | 402 kts | 304° |
| 2026-05-08 08:17 | 37.05052 | 25.53714 | 32161 ft | 400 kts | 304° |
| 2026-05-08 08:18 | 37.08479 | 25.48251 | 32157 ft | 401 kts | 304° |
| 2026-05-08 08:18 | 37.11941 | 25.42723 | 32153 ft | 402 kts | 304° |
| 2026-05-08 08:19 | 37.15377 | 25.37225 | 32163 ft | 402 kts | 304° |
| 2026-05-08 08:19 | 37.18806 | 25.31734 | 31684 ft | 399 kts | 303° |
| 2026-05-08 08:19 | 37.20517 | 25.28988 | 31119 ft | 396 kts | 303° |
| 2026-05-08 08:20 | 37.22202 | 25.26283 | 30699 ft | 389 kts | 303° |
| 2026-05-08 08:20 | 37.23909 | 25.23659 | 30296 ft | 393 kts | 308° |
| 2026-05-08 08:20 | 37.26070 | 25.21412 | 29782 ft | 412 kts | 316° |
| 2026-05-08 08:20 | 37.28328 | 25.19220 | 29192 ft | 416 kts | 315° |
| 2026-05-08 08:21 | 37.30619 | 25.16987 | 28367 ft | 417 kts | 316° |
| 2026-05-08 08:21 | 37.32930 | 25.14741 | 27449 ft | 420 kts | 316° |
| 2026-05-08 08:21 | 37.35254 | 25.12484 | 26509 ft | 423 kts | 316° |
| 2026-05-08 08:21 | 37.36800 | 25.10981 | 25868 ft | 425 kts | 317° |
| 2026-05-08 08:22 | 37.39928 | 25.07939 | 24503 ft | 432 kts | 317° |
| 2026-05-08 08:22 | 37.42330 | 25.05601 | 23452 ft | 438 kts | 318° |
| 2026-05-08 08:22 | 37.44710 | 25.03284 | 22569 ft | 426 kts | 318° |
| 2026-05-08 08:22 | 37.46274 | 25.01760 | 21602 ft | 428 kts | 319° |
| 2026-05-08 08:23 | 37.48620 | 24.99472 | 20590 ft | 422 kts | 319° |
| 2026-05-08 08:23 | 37.50921 | 24.97228 | 19758 ft | 413 kts | 319° |
| 2026-05-08 08:23 | 37.53166 | 24.95037 | 19023 ft | 403 kts | 319° |
| 2026-05-08 08:23 | 37.55349 | 24.92906 | 18425 ft | 391 kts | 319° |
| 2026-05-08 08:24 | 37.57449 | 24.90851 | 17736 ft | 384 kts | 319° |
| 2026-05-08 08:24 | 37.59558 | 24.88788 | 17035 ft | 382 kts | 319° |
| 2026-05-08 08:24 | 37.61652 | 24.86737 | 16349 ft | 381 kts | 319° |
| 2026-05-08 08:24 | 37.63725 | 24.84705 | 15689 ft | 381 kts | 319° |
| 2026-05-08 08:25 | 37.65823 | 24.82647 | 15062 ft | 381 kts | 319° |
| 2026-05-08 08:25 | 37.67917 | 24.80592 | 14473 ft | 380 kts | 319° |
| 2026-05-08 08:25 | 37.70011 | 24.78535 | 13845 ft | 380 kts | 319° |
| 2026-05-08 08:25 | 37.72103 | 24.76479 | 13164 ft | 381 kts | 319° |
| 2026-05-08 08:26 | 37.74174 | 24.74442 | 12501 ft | 380 kts | 319° |
| 2026-05-08 08:26 | 37.76258 | 24.72391 | 11896 ft | 377 kts | 319° |
| 2026-05-08 08:26 | 37.78317 | 24.70362 | 11323 ft | 374 kts | 319° |
| 2026-05-08 08:26 | 37.80371 | 24.68338 | 10755 ft | 371 kts | 319° |
| 2026-05-08 08:27 | 37.82404 | 24.66332 | 10218 ft | 369 kts | 319° |
| 2026-05-08 08:27 | 37.84404 | 24.64358 | 9697 ft | 366 kts | 319° |
| 2026-05-08 08:27 | 37.86395 | 24.62390 | 9219 ft | 360 kts | 319° |
| 2026-05-08 08:27 | 37.88359 | 24.60449 | 8979 ft | 348 kts | 319° |
| 2026-05-08 08:28 | 37.90200 | 24.58628 | 8998 ft | 331 kts | 319° |
| 2026-05-08 08:28 | 37.91975 | 24.56871 | 8995 ft | 316 kts | 319° |
| 2026-05-08 08:28 | 37.93679 | 24.55183 | 8991 ft | 301 kts | 319° |
| 2026-05-08 08:28 | 37.95294 | 24.53582 | 8983 ft | 288 kts | 318° |
| 2026-05-08 08:29 | 37.96823 | 24.52066 | 8931 ft | 276 kts | 318° |
| 2026-05-08 08:29 | 37.98312 | 24.50590 | 8865 ft | 265 kts | 318° |
| 2026-05-08 08:29 | 37.99570 | 24.48989 | 8761 ft | 249 kts | 297° |
| 2026-05-08 08:29 | 38.00419 | 24.47060 | 8716 ft | 258 kts | 295° |
| 2026-05-08 08:30 | 38.01306 | 24.45065 | 8501 ft | 265 kts | 296° |
| 2026-05-08 08:30 | 38.02217 | 24.43017 | 8239 ft | 267 kts | 296° |
| 2026-05-08 08:30 | 38.04040 | 24.38913 | 7666 ft | 267 kts | 296° |
| 2026-05-08 08:31 | 38.04954 | 24.36853 | 7400 ft | 265 kts | 295° |
| 2026-05-08 08:31 | 38.05837 | 24.34838 | 7246 ft | 256 kts | 295° |
| 2026-05-08 08:31 | 38.06676 | 24.32910 | 7058 ft | 249 kts | 295° |
| 2026-05-08 08:31 | 38.07511 | 24.30991 | 6801 ft | 247 kts | 295° |
| 2026-05-08 08:32 | 38.08346 | 24.29072 | 6486 ft | 248 kts | 295° |
| 2026-05-08 08:32 | 38.09190 | 24.27137 | 6088 ft | 252 kts | 295° |
| 2026-05-08 08:32 | 38.10043 | 24.25189 | 5659 ft | 259 kts | 295° |
| 2026-05-08 08:32 | 38.10929 | 24.23166 | 5246 ft | 263 kts | 294° |
| 2026-05-08 08:33 | 38.11814 | 24.21144 | 4876 ft | 263 kts | 294° |
| 2026-05-08 08:33 | 38.12701 | 24.19117 | 4611 ft | 259 kts | 294° |
| 2026-05-08 08:33 | 38.13545 | 24.17116 | 4389 ft | 251 kts | 286° |
| 2026-05-08 08:33 | 38.13816 | 24.15011 | 4130 ft | 235 kts | 259° |
| 2026-05-08 08:34 | 38.13318 | 24.13115 | 3955 ft | 221 kts | 237° |
| 2026-05-08 08:34 | 38.12448 | 24.11584 | 3813 ft | 210 kts | 226° |
| 2026-05-08 08:34 | 38.11413 | 24.10344 | 3731 ft | 198 kts | 219° |
| 2026-05-08 08:34 | 38.10369 | 24.09297 | 3629 ft | 188 kts | 216° |
| 2026-05-08 08:35 | 38.09344 | 24.08311 | 3516 ft | 181 kts | 216° |
| 2026-05-08 08:35 | 38.08363 | 24.07370 | 3391 ft | 170 kts | 216° |
| 2026-05-08 08:35 | 38.07428 | 24.06474 | 3259 ft | 166 kts | 216° |
| 2026-05-08 08:35 | 38.06525 | 24.05610 | 3116 ft | 163 kts | 216° |
| 2026-05-08 08:36 | 38.05637 | 24.04760 | 2942 ft | 157 kts | 216° |
| 2026-05-08 08:36 | 38.04811 | 24.03969 | 2779 ft | 142 kts | 216° |
| 2026-05-08 08:36 | 38.04037 | 24.03229 | 2611 ft | 137 kts | 216° |
| 2026-05-08 08:36 | 38.03269 | 24.02494 | 2430 ft | 138 kts | 216° |
| 2026-05-08 08:37 | 38.02507 | 24.01767 | 2249 ft | 138 kts | 216° |
| 2026-05-08 08:37 | 38.01740 | 24.01033 | 2079 ft | 139 kts | 216° |
| 2026-05-08 08:37 | 38.00961 | 24.00288 | 1872 ft | 141 kts | 216° |
| 2026-05-08 08:37 | 38.00164 | 23.99527 | 1710 ft | 145 kts | 216° |
| 2026-05-08 08:38 | 37.99366 | 23.98765 | 1496 ft | 144 kts | 216° |
| 2026-05-08 08:38 | 37.98570 | 23.98007 | 1283 ft | 142 kts | 217° |
| 2026-05-08 08:38 | 37.97773 | 23.97240 | 1102 ft | 145 kts | 215° |
| 2026-05-08 08:38 | 37.96958 | 23.96464 | 946 ft | 146 kts | 217° |
| 2026-05-08 08:39 | 37.96166 | 23.95697 | 787 ft | 144 kts | 218° |
| 2026-05-08 08:39 | 37.95378 | 23.94949 | 572 ft | 139 kts | 216° |
| 2026-05-08 08:39 | 37.94599 | 23.94214 | 354 ft | 139 kts | 216° |
| 2026-05-08 08:39 | 37.93856 | 23.93515 | 295 ft | 118 kts | 217° |
| 2026-05-08 08:40 | 37.93397 | 23.93079 | 296 ft | 52 kts | 216° |
| 2026-05-08 08:40 | 37.93145 | 23.92865 | 291 ft | 39 kts | 197° |
| 2026-05-08 08:40 | 37.92956 | 23.92838 | 302 ft | 18 kts | 159° |
| 2026-05-08 08:40 | 37.92962 | 23.92943 | 301 ft | 16 kts | 38° |
| 2026-05-08 08:41 | 37.93089 | 23.93056 | 302 ft | 29 kts | 31° |
| 2026-05-08 08:41 | 37.93230 | 23.93200 | 301 ft | 25 kts | 38° |
| 2026-05-08 08:41 | 37.93378 | 23.93336 | 302 ft | 27 kts | 35° |
| 2026-05-08 08:41 | 37.93430 | 23.93420 | 301 ft | 12 kts | 86° |
| 2026-05-08 08:42 | 37.93382 | 23.93523 | 303 ft | 17 kts | 128° |
| 2026-05-08 08:42 | 37.93288 | 23.93675 | 305 ft | 27 kts | 128° |
| 2026-05-08 08:42 | 37.93158 | 23.93890 | 304 ft | 34 kts | 127° |
| 2026-05-08 08:42 | 37.93042 | 23.94086 | 305 ft | 16 kts | 126° |
| 2026-05-08 08:43 | 37.92970 | 23.94209 | 305 ft | 15 kts | 127° |
| 2026-05-08 08:43 | 37.92926 | 23.94301 | 304 ft | 6 kts | 86° |
| 2026-05-08 08:43 | 37.92960 | 23.94344 | 305 ft | 7 kts | 37° |
| 2026-05-08 08:43 | 37.92979 | 23.94363 | 304 ft | 1 kts | 37° |
| 2026-05-08 08:44 | 37.92991 | 23.94373 | 305 ft | 0 kts | 37° |
| 2026-05-08 08:44 | 37.92991 | 23.94374 | 305 ft | 0 kts | 37° |